createdAt,value
2022-09-15T00:02:24.369Z,3.90
2022-09-15T00:04:54.572Z,4.70
2022-09-15T00:07:24.506Z,5.25
2022-09-15T00:09:54.598Z,5.28
2022-09-15T00:12:24.697Z,5.13
2022-09-15T00:14:54.826Z,5.43
2022-09-15T00:17:24.894Z,4.85
2022-09-15T00:19:55.294Z,4.90
2022-09-15T00:22:25.728Z,5.03
2022-09-15T00:24:55.805Z,4.07
2022-09-15T00:27:25.874Z,4.32
2022-09-15T00:29:55.906Z,3.50
2022-09-15T00:32:25.947Z,4.28
2022-09-15T00:34:55.697Z,3.90
2022-09-15T00:37:25.346Z,4.38
2022-09-15T00:39:56.714Z,4.03
2022-09-15T00:42:27.734Z,3.95
2022-09-15T00:45:02.026Z,4.45
2022-09-15T00:47:38.244Z,4.13
2022-09-15T00:50:17.940Z,4.38
2022-09-15T00:52:59.797Z,4.88
2022-09-15T00:55:44.226Z,4.65
2022-09-15T00:58:22.046Z,3.55
2022-09-15T01:01:02.265Z,4.78
2022-09-15T01:03:35.046Z,4.43
2022-09-15T01:06:43.868Z,4.20
2022-09-15T01:09:27.438Z,4.07
2022-09-15T01:11:57.494Z,3.90
2022-09-15T01:14:27.481Z,3.35
2022-09-15T01:17:12.335Z,3.30
2022-09-15T01:20:09.682Z,3.95
2022-09-15T01:23:18.486Z,3.65
2022-09-15T01:26:24.694Z,3.42
2022-09-15T01:29:33.526Z,3.63
2022-09-15T01:32:39.795Z,3.55
2022-09-15T01:35:48.148Z,3.80
2022-09-15T01:38:43.460Z,3.80
2022-09-15T01:41:37.976Z,3.92
2022-09-15T01:44:21.783Z,3.20
2022-09-15T01:46:58.137Z,3.95
2022-09-15T01:49:55.987Z,4.07
2022-09-15T01:52:27.353Z,4.22
2022-09-15T01:55:00.350Z,4.22
2022-09-15T01:57:30.378Z,4.40
2022-09-15T02:00:02.033Z,4.85
2022-09-15T02:02:53.328Z,4.38
2022-09-15T02:05:39.298Z,4.00
2022-09-15T02:08:30.396Z,4.72
2022-09-15T02:11:18.012Z,4.57
2022-09-15T02:14:01.533Z,4.55
2022-09-15T02:16:35.894Z,4.18
2022-09-15T02:19:43.326Z,4.30
2022-09-15T02:22:25.910Z,4.90
2022-09-15T02:25:19.624Z,4.88
2022-09-15T02:27:54.765Z,4.00
2022-09-15T02:30:25.118Z,4.18
2022-09-15T02:33:00.163Z,4.05
2022-09-15T02:35:32.671Z,3.85
2022-09-15T02:38:03.756Z,4.07
2022-09-15T02:40:34.814Z,4.13
2022-09-15T02:43:07.317Z,4.13
2022-09-15T02:45:37.883Z,3.58
2022-09-15T02:48:11.024Z,3.35
2022-09-15T02:50:41.738Z,4.25
2022-09-15T02:53:11.877Z,3.88
2022-09-15T02:55:41.636Z,4.35
2022-09-15T02:58:11.298Z,3.90
2022-09-15T03:00:40.997Z,3.95
2022-09-15T03:03:14.165Z,3.88
2022-09-15T03:05:43.825Z,3.53
2022-09-15T03:08:13.543Z,3.60
2022-09-15T03:10:46.083Z,3.67
2022-09-15T03:13:16.207Z,3.95
2022-09-15T03:15:45.993Z,4.07
2022-09-15T03:18:15.712Z,3.60
2022-09-15T03:20:45.372Z,3.97
2022-09-15T03:23:15.157Z,3.47
2022-09-15T03:25:47.339Z,3.28
2022-09-15T03:28:18.293Z,3.53
2022-09-15T03:30:49.874Z,4.35
2022-09-15T03:33:19.641Z,3.67
2022-09-15T03:35:52.100Z,3.67
2022-09-15T03:38:24.266Z,3.55
2022-09-15T03:41:06.727Z,4.07
2022-09-15T03:43:38.743Z,4.03
2022-09-15T03:46:10.588Z,3.55
2022-09-15T03:48:42.285Z,4.18
2022-09-15T03:51:12.818Z,4.43
2022-09-15T03:53:44.116Z,3.63
2022-09-15T03:56:25.033Z,4.38
2022-09-15T03:58:56.017Z,3.30
2022-09-15T04:01:26.075Z,4.05
2022-09-15T04:03:56.596Z,3.95
2022-09-15T04:06:27.316Z,4.10
2022-09-15T04:08:58.783Z,4.22
2022-09-15T04:11:28.895Z,4.72
2022-09-15T04:13:59.125Z,4.85
2022-09-15T04:16:30.173Z,4.72
2022-09-15T04:19:00.340Z,4.30
2022-09-15T04:21:30.856Z,3.83
2022-09-15T04:24:00.973Z,3.67
2022-09-15T04:26:34.206Z,3.97
2022-09-15T04:29:05.654Z,4.18
2022-09-15T04:31:36.350Z,3.60
2022-09-15T04:34:06.636Z,3.47
2022-09-15T04:36:37.000Z,3.38
2022-09-15T04:39:08.433Z,2.90
2022-09-15T04:41:38.527Z,2.97
2022-09-15T04:44:09.463Z,2.85
2022-09-15T04:46:39.688Z,3.10
2022-09-15T04:49:10.076Z,2.97
2022-09-15T04:51:40.965Z,2.97
2022-09-15T04:54:12.108Z,2.92
2022-09-15T04:56:42.575Z,3.00
2022-09-15T04:59:17.646Z,2.92
2022-09-15T05:01:48.307Z,3.38
2022-09-15T05:04:19.366Z,2.80
2022-09-15T05:06:49.828Z,3.15
2022-09-15T05:09:19.848Z,3.33
2022-09-15T05:11:49.996Z,3.35
2022-09-15T05:14:20.093Z,2.85
2022-09-15T05:16:50.147Z,3.20
2022-09-15T05:19:20.205Z,3.22
2022-09-15T05:21:50.274Z,3.10
2022-09-15T05:24:20.408Z,2.85
2022-09-15T05:26:50.520Z,2.67
2022-09-15T05:29:21.177Z,3.05
2022-09-15T05:31:53.388Z,3.05
2022-09-15T05:34:23.265Z,2.80
2022-09-15T05:36:53.098Z,3.17
2022-09-15T05:39:24.224Z,3.03
2022-09-15T05:41:53.974Z,2.78
2022-09-15T05:44:24.619Z,3.10
2022-09-15T05:46:57.088Z,3.03
2022-09-15T05:49:27.296Z,2.97
2022-09-15T05:51:57.198Z,2.90
2022-09-15T05:54:29.068Z,3.30
2022-09-15T05:56:58.935Z,3.00
2022-09-15T05:59:30.237Z,3.28
2022-09-15T06:02:00.080Z,3.13
2022-09-15T06:04:32.849Z,3.38
2022-09-15T06:07:02.606Z,3.15
2022-09-15T06:09:32.456Z,2.70
2022-09-15T06:12:03.577Z,3.40
2022-09-15T06:14:34.565Z,3.30
2022-09-15T06:17:04.255Z,3.38
2022-09-15T06:19:36.352Z,3.50
2022-09-15T06:22:06.266Z,3.15
2022-09-15T06:24:36.025Z,3.17
2022-09-15T06:27:09.840Z,3.15
2022-09-15T06:29:41.049Z,2.83
2022-09-15T06:32:10.917Z,3.03
2022-09-15T06:34:40.764Z,2.80
2022-09-15T06:37:12.228Z,3.03
2022-09-15T06:39:42.427Z,3.08
2022-09-15T06:42:14.030Z,2.92
2022-09-15T06:44:47.237Z,3.03
2022-09-15T06:47:20.376Z,2.92
2022-09-15T06:49:50.859Z,3.30
2022-09-15T06:52:21.797Z,3.28
2022-09-15T06:54:52.131Z,3.10
2022-09-15T06:57:27.894Z,2.80
2022-09-15T06:59:57.999Z,3.10
2022-09-15T07:02:29.932Z,3.00
2022-09-15T07:05:00.527Z,3.00
2022-09-15T07:07:31.151Z,3.05
2022-09-15T07:10:04.608Z,2.65
2022-09-15T07:12:34.790Z,3.00
2022-09-15T07:15:05.217Z,3.08
2022-09-15T07:17:35.313Z,3.05
2022-09-15T07:20:06.414Z,3.00
2022-09-15T07:22:36.566Z,3.17
2022-09-15T07:25:06.964Z,2.78
2022-09-15T07:27:37.223Z,3.38
2022-09-15T07:30:13.364Z,3.45
2022-09-15T07:32:43.763Z,3.35
2022-09-15T07:35:14.326Z,3.33
2022-09-15T07:37:46.320Z,3.50
2022-09-15T07:40:20.083Z,3.35
2022-09-15T07:42:51.456Z,3.17
2022-09-15T07:45:22.228Z,3.63
2022-09-15T07:47:52.477Z,4.28
2022-09-15T07:50:24.475Z,4.13
2022-09-15T07:53:00.411Z,5.25
2022-09-15T07:55:32.151Z,4.70
2022-09-15T07:58:06.497Z,4.85
2022-09-15T08:00:36.956Z,4.88
2022-09-15T08:03:07.293Z,4.90
2022-09-15T08:05:41.280Z,5.28
2022-09-15T08:08:18.445Z,5.70
2022-09-15T08:10:48.464Z,5.25
2022-09-15T08:13:21.639Z,3.33
2022-09-15T08:15:53.690Z,3.58
2022-09-15T08:18:25.324Z,4.03
2022-09-15T08:20:55.507Z,4.28
2022-09-15T08:23:25.618Z,3.67
2022-09-15T08:25:55.764Z,4.10
2022-09-15T08:28:26.035Z,3.92
2022-09-15T08:31:16.031Z,4.43
2022-09-15T08:33:51.583Z,4.05
2022-09-15T08:36:21.847Z,3.65
2022-09-15T08:38:51.919Z,3.80
2022-09-15T08:41:43.746Z,3.90
2022-09-15T08:44:52.806Z,9.23
2022-09-15T08:47:43.586Z,4.53
2022-09-15T08:50:33.197Z,5.13
2022-09-15T08:53:27.406Z,4.15
2022-09-15T08:55:59.486Z,4.55
2022-09-15T08:58:36.495Z,5.07
2022-09-15T09:01:36.552Z,4.53
2022-09-15T09:04:45.357Z,4.40
2022-09-15T09:07:56.359Z,3.65
2022-09-15T09:10:36.878Z,4.97
2022-09-15T09:13:45.727Z,4.97
2022-09-15T09:16:58.124Z,4.13
2022-09-15T09:20:09.939Z,3.75
2022-09-15T09:22:43.706Z,3.83
2022-09-15T09:25:27.215Z,3.67
2022-09-15T09:28:02.008Z,4.32
2022-09-15T09:30:35.277Z,3.45
2022-09-15T09:33:38.676Z,4.20
2022-09-15T09:36:10.983Z,4.47
2022-09-15T09:38:45.004Z,5.07
2022-09-15T09:41:24.015Z,4.85
2022-09-15T09:43:58.237Z,4.40
2022-09-15T09:46:28.125Z,4.80
2022-09-15T09:49:27.565Z,4.70
2022-09-15T09:52:04.044Z,5.03
2022-09-15T09:54:36.824Z,4.18
2022-09-15T09:57:40.686Z,4.07
2022-09-15T10:00:42.090Z,3.53
2022-09-15T10:03:33.080Z,3.60
2022-09-15T10:06:22.214Z,5.47
2022-09-15T10:09:08.577Z,5.43
2022-09-15T10:12:01.826Z,5.88
2022-09-15T10:14:48.857Z,5.80
2022-09-15T10:17:22.978Z,4.57
2022-09-15T10:19:56.726Z,4.18
2022-09-15T10:22:36.903Z,4.70
2022-09-15T10:25:57.580Z,4.40
2022-09-15T10:28:42.512Z,4.40
2022-09-15T10:31:34.175Z,4.60
2022-09-15T10:34:33.606Z,4.50
2022-09-15T10:37:29.087Z,4.45
2022-09-15T10:40:04.005Z,4.53
2022-09-15T10:42:50.154Z,4.53
2022-09-15T10:45:36.351Z,4.88
2022-09-15T10:48:33.076Z,4.93
2022-09-15T10:51:45.517Z,5.20
2022-09-15T10:54:50.537Z,5.38
2022-09-15T10:57:53.364Z,5.03
2022-09-15T11:00:30.584Z,5.38
2022-09-15T11:03:27.644Z,5.85
2022-09-15T11:06:29.563Z,5.25
2022-09-15T11:09:12.606Z,5.93
2022-09-15T11:12:12.895Z,6.13
2022-09-15T11:15:21.736Z,6.20
2022-09-15T11:18:24.493Z,5.90
2022-09-15T11:21:21.237Z,5.70
2022-09-15T11:24:24.118Z,5.43
2022-09-15T11:27:20.483Z,5.82
2022-09-15T11:30:29.185Z,6.07
2022-09-15T11:33:06.895Z,6.00
2022-09-15T11:36:03.157Z,7.72
2022-09-15T11:38:52.374Z,8.77
2022-09-15T11:41:42.509Z,8.15
2022-09-15T11:44:31.864Z,9.18
2022-09-15T11:47:38.214Z,9.40
2022-09-15T11:50:25.479Z,7.43
2022-09-15T11:53:36.483Z,7.80
2022-09-15T11:56:36.343Z,9.07
2022-09-15T11:59:36.795Z,7.60
2022-09-15T12:02:38.280Z,7.85
2022-09-15T12:05:27.294Z,7.72
2022-09-15T12:08:08.784Z,7.28
2022-09-15T12:10:47.546Z,8.07
2022-09-15T12:13:24.598Z,8.57
2022-09-15T12:15:55.648Z,8.13
2022-09-15T12:19:01.046Z,7.95
2022-09-15T12:22:04.046Z,6.78
2022-09-15T12:25:02.393Z,6.60
2022-09-15T12:27:32.721Z,6.40
2022-09-15T12:30:03.354Z,6.05
2022-09-15T12:32:39.597Z,5.97
2022-09-15T12:35:35.546Z,5.80
2022-09-15T12:38:06.567Z,6.75
2022-09-15T12:40:42.188Z,6.07
2022-09-15T12:43:26.393Z,6.03
2022-09-15T12:46:02.488Z,6.95
2022-09-15T12:48:42.450Z,5.88
2022-09-15T12:51:23.872Z,6.30
2022-09-15T12:54:02.544Z,6.28
2022-09-15T12:56:35.853Z,5.85
2022-09-15T12:59:11.617Z,5.70
2022-09-15T13:01:51.769Z,6.32
2022-09-15T13:04:55.984Z,5.97
2022-09-15T13:07:36.691Z,6.00
2022-09-15T13:10:33.908Z,5.82
2022-09-15T13:13:15.704Z,5.95
2022-09-15T13:15:56.139Z,5.50
2022-09-15T13:18:27.344Z,5.38
2022-09-15T13:21:09.999Z,5.57
2022-09-15T13:23:44.722Z,5.50
2022-09-15T13:26:23.496Z,7.47
2022-09-15T13:28:56.216Z,5.47
2022-09-15T13:32:05.325Z,5.07
2022-09-15T13:35:15.563Z,5.07
2022-09-15T13:38:25.252Z,4.45
2022-09-15T13:41:39.386Z,5.13
2022-09-15T13:44:46.743Z,4.63
2022-09-15T13:47:39.686Z,4.70
2022-09-15T13:50:48.445Z,5.05
2022-09-15T13:54:08.423Z,4.20
2022-09-15T13:56:44.733Z,4.63
2022-09-15T13:59:24.724Z,4.05
2022-09-15T14:01:56.241Z,4.63
2022-09-15T14:04:34.056Z,4.70
2022-09-15T14:07:04.747Z,4.82
2022-09-15T14:09:49.266Z,4.80
2022-09-15T14:12:24.854Z,4.38
2022-09-15T14:15:00.313Z,4.63
2022-09-15T14:17:36.375Z,4.68
2022-09-15T14:20:21.486Z,5.47
2022-09-15T14:22:54.655Z,6.00
2022-09-15T14:25:25.735Z,6.68
2022-09-15T14:27:58.547Z,6.53
2022-09-15T14:30:33.730Z,5.35
2022-09-15T14:33:05.918Z,5.00
2022-09-15T14:35:40.112Z,5.43
2022-09-15T14:38:32.104Z,4.70
2022-09-15T14:41:03.460Z,4.90
2022-09-15T14:43:41.114Z,4.60
2022-09-15T14:46:28.194Z,4.45
2022-09-15T14:49:19.843Z,4.40
2022-09-15T14:51:53.414Z,4.28
2022-09-15T14:54:36.425Z,3.88
2022-09-15T14:57:14.885Z,4.43
2022-09-15T15:00:06.696Z,3.83
2022-09-15T15:03:00.408Z,3.63
2022-09-15T15:05:37.862Z,3.35
2022-09-15T15:08:11.212Z,3.33
2022-09-15T15:10:42.725Z,3.20
2022-09-15T15:13:19.212Z,3.25
2022-09-15T15:15:49.655Z,3.60
2022-09-15T15:18:43.397Z,4.03
2022-09-15T15:21:43.983Z,3.40
2022-09-15T15:24:22.616Z,3.75
2022-09-15T15:27:31.496Z,3.17
2022-09-15T15:30:22.425Z,3.78
2022-09-15T15:32:53.726Z,3.63
2022-09-15T15:35:25.596Z,3.72
2022-09-15T15:38:18.233Z,3.80
2022-09-15T15:40:54.077Z,4.10
2022-09-15T15:43:28.203Z,3.13
2022-09-15T15:46:06.703Z,3.53
2022-09-15T15:48:39.756Z,3.22
2022-09-15T15:51:11.091Z,2.95
2022-09-15T15:53:43.733Z,4.28
2022-09-15T15:56:16.113Z,3.90
2022-09-15T15:58:46.858Z,3.50
2022-09-15T16:01:19.903Z,3.22
2022-09-15T16:03:49.673Z,3.60
2022-09-15T16:06:20.026Z,4.20
2022-09-15T16:08:50.045Z,4.35
2022-09-15T16:11:20.940Z,5.65
2022-09-15T16:13:51.953Z,5.00
2022-09-15T16:16:33.275Z,4.97
2022-09-15T16:19:03.047Z,4.80
2022-09-15T16:21:45.435Z,5.32
2022-09-15T16:24:17.613Z,5.50
2022-09-15T16:26:49.578Z,6.03
2022-09-15T16:29:30.546Z,5.30
2022-09-15T16:32:00.625Z,5.82
2022-09-15T16:34:39.267Z,5.90
2022-09-15T16:37:10.773Z,5.90
2022-09-15T16:39:40.513Z,6.07
2022-09-15T16:42:12.385Z,5.43
2022-09-15T16:44:42.167Z,5.70
2022-09-15T16:47:14.114Z,5.95
2022-09-15T16:49:45.455Z,5.90
2022-09-15T16:52:17.125Z,5.40
2022-09-15T16:54:47.447Z,5.28
2022-09-15T16:57:19.816Z,5.72
2022-09-15T16:59:50.743Z,5.45
2022-09-15T17:02:21.359Z,4.85
2022-09-15T17:04:51.596Z,4.78
2022-09-15T17:07:21.745Z,4.72
2022-09-15T17:09:52.945Z,5.00
2022-09-15T17:12:27.477Z,4.78
2022-09-15T17:14:58.344Z,4.78
2022-09-15T17:17:29.266Z,4.55
2022-09-15T17:20:00.129Z,4.30
2022-09-15T17:22:33.336Z,4.93
2022-09-15T17:25:04.187Z,5.07
2022-09-15T17:27:34.358Z,5.03
2022-09-15T17:30:04.513Z,4.88
2022-09-15T17:32:35.070Z,5.00
2022-09-15T17:35:11.203Z,4.65
2022-09-15T17:37:41.547Z,5.15
2022-09-15T17:40:14.119Z,4.63
2022-09-15T17:42:45.994Z,5.10
2022-09-15T17:45:28.383Z,5.45
2022-09-15T17:47:59.072Z,4.45
2022-09-15T17:50:31.364Z,4.40
2022-09-15T17:53:03.292Z,4.00
2022-09-15T17:55:36.136Z,5.07
2022-09-15T17:58:08.164Z,4.93
2022-09-15T18:00:43.527Z,4.93
2022-09-15T18:03:28.142Z,4.90
2022-09-15T18:06:00.116Z,5.25
2022-09-15T18:08:30.953Z,5.72
2022-09-15T18:11:01.164Z,4.63
2022-09-15T18:13:35.536Z,5.35
2022-09-15T18:16:13.545Z,5.05
2022-09-15T18:18:44.562Z,5.95
2022-09-15T18:21:30.206Z,5.47
2022-09-15T18:24:00.256Z,5.70
2022-09-15T18:26:31.385Z,5.40
2022-09-15T18:29:01.597Z,5.22
2022-09-15T18:31:34.560Z,4.95
2022-09-15T18:34:04.643Z,4.97
2022-09-15T18:36:34.436Z,5.10
2022-09-15T18:39:04.205Z,5.57
2022-09-15T18:41:34.431Z,4.70
2022-09-15T18:44:04.303Z,5.22
2022-09-15T18:46:33.973Z,5.75
2022-09-15T18:49:04.916Z,5.95
2022-09-15T18:51:50.449Z,6.10
2022-09-15T18:54:21.175Z,6.65
2022-09-15T18:56:50.858Z,6.90
2022-09-15T18:59:20.993Z,7.10
2022-09-15T19:01:51.480Z,7.78
2022-09-15T19:04:21.622Z,7.60
2022-09-15T19:06:51.292Z,8.38
2022-09-15T19:09:21.235Z,8.38
2022-09-15T19:11:50.825Z,8.52
2022-09-15T19:14:20.562Z,6.65
2022-09-15T19:16:57.723Z,5.43
2022-09-15T19:19:28.315Z,7.15
2022-09-15T19:21:59.322Z,6.65
2022-09-15T19:24:34.155Z,6.32
2022-09-15T19:27:05.089Z,5.15
2022-09-15T19:29:36.564Z,6.35
2022-09-15T19:32:16.326Z,7.55
2022-09-15T19:34:47.127Z,7.25
2022-09-15T19:37:22.841Z,7.00
2022-09-15T19:39:53.138Z,7.07
2022-09-15T19:42:24.625Z,6.97
2022-09-15T19:44:55.984Z,6.65
2022-09-15T19:47:26.067Z,6.05
2022-09-15T19:49:57.355Z,6.78
2022-09-15T19:52:28.604Z,6.13
2022-09-15T19:54:58.605Z,7.03
2022-09-15T19:57:28.786Z,6.45
2022-09-15T19:59:58.882Z,7.22
2022-09-15T20:02:29.253Z,7.35
2022-09-15T20:04:59.344Z,7.65
2022-09-15T20:07:29.252Z,7.38
2022-09-15T20:09:59.876Z,7.18
2022-09-15T20:12:29.587Z,6.80
2022-09-15T20:14:59.347Z,6.80
2022-09-15T20:17:29.526Z,6.93
2022-09-15T20:19:59.547Z,8.43
2022-09-15T20:22:29.277Z,7.53
2022-09-15T20:24:59.105Z,8.45
2022-09-15T20:27:28.748Z,8.02
2022-09-15T20:29:58.918Z,8.07
2022-09-15T20:32:31.006Z,7.47
2022-09-15T20:35:01.029Z,8.45
2022-09-15T20:37:35.278Z,8.68
2022-09-15T20:40:11.085Z,9.63
2022-09-15T20:42:41.073Z,9.10
2022-09-15T20:45:11.976Z,7.78
2022-09-15T20:47:41.825Z,9.00
2022-09-15T20:50:12.364Z,9.57
2022-09-15T20:52:42.583Z,9.20
2022-09-15T20:55:12.607Z,7.72
2022-09-15T20:57:42.553Z,7.03
2022-09-15T21:00:13.594Z,6.75
2022-09-15T21:02:44.098Z,8.40
2022-09-15T21:05:13.798Z,7.90
2022-09-15T21:07:43.373Z,8.57
2022-09-15T21:10:12.963Z,8.13
2022-09-15T21:12:42.785Z,8.27
2022-09-15T21:15:12.816Z,8.43
2022-09-15T21:17:42.436Z,9.40
2022-09-15T21:20:12.275Z,8.65
2022-09-15T21:22:42.745Z,9.07
2022-09-15T21:25:12.313Z,8.95
2022-09-15T21:27:42.065Z,9.50
2022-09-15T21:30:12.143Z,9.80
2022-09-15T21:32:42.255Z,9.63
2022-09-15T21:35:12.273Z,9.40
2022-09-15T21:37:42.204Z,10.45
2022-09-15T21:40:13.156Z,9.52
2022-09-15T21:42:43.203Z,9.13
2022-09-15T21:45:13.334Z,9.52
2022-09-15T21:47:43.250Z,9.57
2022-09-15T21:50:13.273Z,8.98
2022-09-15T21:52:43.133Z,9.27
2022-09-15T21:55:13.464Z,10.02
2022-09-15T21:57:43.514Z,9.43
2022-09-15T22:00:14.186Z,9.77
2022-09-15T22:02:44.125Z,8.95
2022-09-15T22:05:14.192Z,9.00
2022-09-15T22:07:44.320Z,8.63
2022-09-15T22:10:14.426Z,8.80
2022-09-15T22:12:44.327Z,8.45
2022-09-15T22:15:14.224Z,7.82
2022-09-15T22:17:44.266Z,7.78
2022-09-15T22:20:14.563Z,8.05
2022-09-15T22:22:45.945Z,7.28
2022-09-15T22:25:21.681Z,8.23
2022-09-15T22:27:51.866Z,8.43
2022-09-15T22:30:21.765Z,7.60
2022-09-15T22:32:51.673Z,7.90
2022-09-15T22:35:21.503Z,7.93
2022-09-15T22:37:51.272Z,7.93
2022-09-15T22:40:20.873Z,7.22
2022-09-15T22:42:50.492Z,7.55
2022-09-15T22:45:20.207Z,6.35
2022-09-15T22:47:49.786Z,6.85
2022-09-15T22:50:19.556Z,7.43
2022-09-15T22:52:49.887Z,8.63
2022-09-15T22:55:19.697Z,7.75
2022-09-15T22:57:50.866Z,7.22
2022-09-15T23:00:21.836Z,6.78
2022-09-15T23:02:51.783Z,6.30
2022-09-15T23:05:21.773Z,6.57
2022-09-15T23:07:51.903Z,7.55
2022-09-15T23:10:21.896Z,8.65
2022-09-15T23:12:51.783Z,7.80
2022-09-15T23:15:21.914Z,7.82
2022-09-15T23:17:52.366Z,7.05
2022-09-15T23:20:22.634Z,7.70
2022-09-15T23:22:54.135Z,7.43
2022-09-15T23:25:25.372Z,7.30
2022-09-15T23:27:55.182Z,7.75
2022-09-15T23:30:25.185Z,6.68
2022-09-15T23:32:54.766Z,6.22
2022-09-15T23:35:24.418Z,6.47
2022-09-15T23:37:54.106Z,6.50
2022-09-15T23:40:23.806Z,7.10
2022-09-15T23:42:53.476Z,6.57
2022-09-15T23:45:23.124Z,6.63
2022-09-15T23:47:52.693Z,7.07
2022-09-15T23:50:22.344Z,6.82
2022-09-15T23:52:51.894Z,7.07
2022-09-15T23:55:21.488Z,6.53
2022-09-15T23:57:51.197Z,7.10
